Time;durP1;ratioP1;P1;durP2;ratioP2;P2;SDS_P1;SDS_P2;PMS_P1;PMS_P2;Temp;Humidity;BMP_temperature;BMP_pressure;BME280_temperature;BME280_humidity;BME280_pressure;Samples;Min_cycle;Max_cycle;Signal;HPM_P1;HPM_P2
2022/06/24 00:00:08;;;;;;;2.90;2.00;;;;;;;18.44;52.79;100191.94;107853;1279;71995;-89
2022/06/24 00:02:37;;;;;;;3.00;1.70;;;;;;;18.41;52.93;100187.69;107949;1279;74835;-89
2022/06/24 00:05:12;;;;;;;5.30;1.70;;;;;;;18.38;52.94;100190.37;107974;1279;61384;-89
2022/06/24 00:07:49;;;;;;;4.00;1.60;;;;;;;18.35;53.11;100185.21;107889;1279;60549;-89
2022/06/24 00:10:19;;;;;;;4.00;1.70;;;;;;;18.31;53.19;100184.13;108080;1278;75167;-89
2022/06/24 00:12:49;;;;;;;2.50;1.80;;;;;;;18.28;53.43;100179.39;107874;1279;73160;-89
2022/06/24 00:15:34;;;;;;;3.40;1.90;;;;;;;18.25;53.61;100180.24;107706;1279;72994;-89
2022/06/24 00:18:18;;;;;;;;;;;;;;;18.21;53.90;100172.98;107910;1280;61216;-89
2022/06/24 00:20:49;;;;;;;2.60;1.60;;;;;;;18.17;54.07;100175.52;108140;1279;59114;-89
2022/06/24 00:23:19;;;;;;;1.90;1.70;;;;;;;18.12;54.53;100165.70;107714;1279;76344;-89
2022/06/24 00:25:49;;;;;;;4.60;1.80;;;;;;;18.07;54.44;100165.17;107933;1279;75156;-88
2022/06/24 00:30:58;;;;;;;2.90;2.10;;;;;;;18.03;54.26;100158.75;108054;1278;60837;-89
2022/06/24 00:33:31;;;;;;;2.40;1.50;;;;;;;18.03;54.15;100158.86;107949;1278;62293;-89
2022/06/24 00:36:01;;;;;;;3.80;1.90;;;;;;;18.04;54.66;100157.98;108115;1277;75003;-89
2022/06/24 00:38:28;;;;;;;5.00;1.80;;;;;;;18.04;54.36;100152.55;108130;1278;72428;-88
2022/06/24 00:46:54;;;;;;;4.50;2.40;;;;;;;18.05;54.55;100132.92;107922;1281;60535;-89
2022/06/24 00:52:10;;;;;;;4.70;2.60;;;;;;;18.07;55.14;100129.80;108073;1277;71916;-89
2022/06/24 00:54:38;;;;;;;4.40;2.50;;;;;;;18.06;55.56;100128.23;107805;1280;72967;-88
2022/06/24 01:02:32;;;;;;;3.80;2.10;;;;;;;18.04;55.96;100116.60;107874;1281;76040;-89
2022/06/24 01:05:11;;;;;;;2.70;1.80;;;;;;;18.04;55.74;100119.64;107743;1281;71628;-88
2022/06/24 01:07:46;;;;;;;4.50;2.20;;;;;;;18.06;55.63;100115.72;107822;1281;73699;-88
2022/06/24 01:10:20;;;;;;;3.20;2.40;;;;;;;18.08;55.72;100113.70;107752;1281;61257;-88
2022/06/24 01:12:47;;;;;;;3.40;1.90;;;;;;;18.13;55.53;100113.59;107863;1281;60296;-88
2022/06/24 01:15:22;;;;;;;4.30;2.30;;;;;;;18.17;55.53;100110.34;107859;1281;75726;-88
2022/06/24 01:17:53;;;;;;;;;;;;;;;18.22;55.47;100111.07;107639;1281;72439;-89
2022/06/24 01:20:20;;;;;;;2.90;1.90;;;;;;;18.25;55.24;100110.81;107608;1281;73394;-88
2022/06/24 01:22:48;;;;;;;2.90;2.10;;;;;;;18.29;55.18;100111.69;107739;1281;60906;-89
2022/06/24 01:45:59;;;;;;;6.80;2.40;;;;;;;18.34;55.04;100080.39;108055;1274;71158;-89
2022/06/24 01:51:02;;;;;;;3.30;2.10;;;;;;;18.33;54.92;100073.64;108036;1268;59677;-89
2022/06/24 01:53:36;;;;;;;3.70;2.40;;;;;;;18.31;54.94;100070.65;108025;1280;73738;-89
2022/06/24 01:56:07;;;;;;;3.00;2.00;;;;;;;18.29;54.99;100072.98;107890;1279;71690;-89
2022/06/24 01:58:38;;;;;;;3.90;2.30;;;;;;;18.27;55.17;100069.72;107771;1281;73495;-89
2022/06/24 02:01:13;;;;;;;4.50;2.00;;;;;;;18.24;55.27;100065.95;107787;1275;59178;-89
2022/06/24 02:06:24;;;;;;;3.80;2.60;;;;;;;18.18;55.44;100063.98;108055;1269;75429;-89
2022/06/24 02:19:18;;;;;;;2.80;2.10;;;;;;;18.01;55.84;100051.31;107984;1279;76660;-89
2022/06/24 02:21:48;;;;;;;3.40;2.20;;;;;;;17.98;56.02;100050.48;107895;1279;71379;-89
2022/06/24 02:39:31;;;;;;;2.50;2.00;;;;;;;17.82;56.88;100036.66;107898;1267;182114;-89
2022/06/24 02:42:00;;;;;;;3.10;2.40;;;;;;;17.80;57.30;100032.59;107735;1279;60749;-89
2022/06/24 02:47:04;;;;;;;4.00;2.70;;;;;;;17.76;57.45;100026.42;108070;1277;72240;-89
2022/06/24 02:49:36;;;;;;;3.20;2.70;;;;;;;17.72;57.73;100022.08;107745;1279;72192;-89
2022/06/24 02:54:39;;;;;;;3.60;2.60;;;;;;;17.65;58.12;100021.44;108001;1268;59551;-89
2022/06/24 02:57:09;;;;;;;4.00;2.30;;;;;;;17.63;58.19;100021.70;107743;1279;73664;-88
2022/06/24 02:59:37;;;;;;;5.10;3.00;;;;;;;17.61;58.55;100016.55;108234;1278;71822;-88
2022/06/24 03:02:05;;;;;;;4.40;2.50;;;;;;;17.60;58.52;100018.34;107859;1279;75007;-88
2022/06/24 03:04:33;;;;;;;6.00;2.60;;;;;;;17.59;58.52;100017.03;108045;1278;59384;-88
2022/06/24 03:07:02;;;;;;;4.10;2.80;;;;;;;17.59;58.78;100018.86;107949;1279;60490;-88
2022/06/24 03:09:32;;;;;;;5.00;3.20;;;;;;;17.59;58.76;100016.78;107895;1279;76723;-88
2022/06/24 03:11:59;;;;;;;3.60;2.40;;;;;;;17.60;58.64;100017.64;107638;1282;72496;-89
2022/06/24 03:17:13;;;;;;;5.20;2.80;;;;;;;17.61;59.16;100012.09;108016;1278;60532;-89
2022/06/24 03:19:42;;;;;;;4.10;2.50;;;;;;;17.61;59.18;100013.27;107860;1279;62326;-89
2022/06/24 03:22:14;;;;;;;4.40;2.30;;;;;;;17.61;59.24;100007.20;107797;1279;75140;-88
2022/06/24 03:24:43;;;;;;;3.10;2.50;;;;;;;17.62;59.22;100007.29;107841;1279;72139;-88
2022/06/24 03:27:11;;;;;;;5.20;2.50;;;;;;;17.61;59.45;100001.84;107870;1279;72094;-88
2022/06/24 03:29:47;;;;;;;4.20;2.60;;;;;;;17.60;59.80;100004.46;107834;1279;60478;-89
2022/06/24 03:32:15;;;;;;;6.90;2.50;;;;;;;17.59;59.80;100003.09;108428;1278;62707;-88
2022/06/24 03:34:42;;;;;;;4.20;2.60;;;;;;;17.59;59.86;100000.35;108317;1279;74884;-88
2022/06/24 03:37:11;;;;;;;3.90;2.70;;;;;;;17.60;59.77;100001.13;108417;1279;71501;-89
2022/06/24 03:39:38;;;;;;;4.60;3.00;;;;;;;17.62;59.96;99997.96;108370;1279;71908;-89
2022/06/24 03:42:06;;;;;;;5.20;3.00;;;;;;;17.63;59.89;99996.03;108338;1280;60732;-89
2022/06/24 03:44:33;;;;;;;4.30;2.70;;;;;;;17.64;60.03;99990.85;108312;1279;60729;-89
2022/06/24 03:47:03;;;;;;;3.30;2.60;;;;;;;17.65;59.99;99991.73;108268;1279;75992;-89
2022/06/24 03:49:31;;;;;;;4.00;2.70;;;;;;;17.66;60.13;99986.88;107570;1279;73247;-89
2022/06/24 03:51:59;;;;;;;3.50;2.60;;;;;;;17.69;60.18;99987.35;107856;1279;74305;-89
2022/06/24 03:54:26;;;;;;;4.10;2.50;;;;;;;17.71;60.27;99985.30;107995;1278;60620;-89
2022/06/24 03:56:54;;;;;;;6.30;2.90;;;;;;;17.72;60.30;99981.52;108015;1279;60366;-89
2022/06/24 03:59:22;;;;;;;3.60;2.50;;;;;;;17.76;60.37;99983.30;107928;1277;74701;-89
2022/06/24 04:01:50;;;;;;;3.30;2.60;;;;;;;17.77;60.38;99984.13;107924;1279;73687;-89
2022/06/24 04:04:19;;;;;;;4.20;2.70;;;;;;;17.81;60.35;99981.52;108038;1279;73940;-89
2022/06/24 04:06:46;;;;;;;5.20;2.60;;;;;;;17.85;60.40;99981.09;107913;1279;61197;-89
2022/06/24 04:09:14;;;;;;;3.50;2.80;;;;;;;17.90;60.49;99982.85;108041;1279;61146;-89
2022/06/24 04:11:42;;;;;;;4.20;2.60;;;;;;;17.96;60.40;99982.94;107774;1279;75076;-89
2022/06/24 04:14:09;;;;;;;3.60;2.50;;;;;;;18.03;60.28;99975.12;107975;1278;71502;-89
2022/06/24 04:16:37;;;;;;;5.50;2.60;;;;;;;18.09;60.27;99971.42;107675;1279;74284;-89
2022/06/24 04:19:05;;;;;;;4.40;3.10;;;;;;;18.16;60.15;99973.63;107825;1278;62247;-89
2022/06/24 04:21:32;;;;;;;3.20;2.30;;;;;;;18.24;60.12;99974.30;107987;1278;60579;-89
2022/06/24 04:24:00;;;;;;;4.00;2.20;;;;;;;18.30;59.98;99974.20;107927;1279;76685;-89
2022/06/24 04:26:29;;;;;;;4.00;2.60;;;;;;;18.38;60.02;99970.45;107877;1279;71184;-89
2022/06/24 04:28:56;;;;;;;3.70;2.70;;;;;;;18.45;59.92;99967.55;107747;1279;73677;-89
2022/06/24 04:31:24;;;;;;;5.30;2.70;;;;;;;18.52;59.90;99965.73;107687;1281;59217;-89
2022/06/24 04:33:51;;;;;;;3.80;2.40;;;;;;;18.60;59.78;99968.16;108010;1278;60329;-89
2022/06/24 04:36:19;;;;;;;2.90;2.40;;;;;;;18.71;59.53;99973.38;107731;1279;74639;-89
2022/06/24 04:38:48;;;;;;;7.00;3.00;;;;;;;18.85;59.51;99970.74;107889;1278;71456;-89
2022/06/24 04:41:17;;;;;;;5.60;2.60;;;;;;;18.99;59.12;99971.64;107834;1279;73476;-89
2022/06/24 04:43:44;;;;;;;6.10;2.60;;;;;;;19.14;59.05;99976.03;107917;1279;60283;-89
2022/06/24 04:46:13;;;;;;;7.00;2.80;;;;;;;19.30;58.65;99973.02;107898;1279;60826;-89
2022/06/24 04:48:41;;;;;;;6.90;3.00;;;;;;;19.45;58.25;99985.84;107986;1279;76772;-90
2022/06/24 04:51:12;;;;;;;4.10;3.10;;;;;;;19.61;57.68;99993.00;107659;1281;71501;-90
2022/06/24 04:53:40;;;;;;;3.00;2.50;;;;;;;19.78;57.22;99991.33;107811;1278;74669;-90
2022/06/24 04:56:08;;;;;;;6.30;3.00;;;;;;;19.93;56.85;99984.98;107802;1279;61473;-89
2022/06/24 04:58:37;;;;;;;5.70;2.60;;;;;;;20.09;56.80;99991.53;107951;1278;61072;-90
2022/06/24 05:01:11;;;;;;;3.30;2.50;;;;;;;20.24;56.50;99990.98;107904;1280;74833;-89
2022/06/24 05:03:39;;;;;;;7.10;2.90;;;;;;;20.38;55.63;99988.18;107860;1279;71871;-89
2022/06/24 05:06:11;;;;;;;7.70;2.80;;;;;;;20.48;54.96;99987.88;107929;1279;73881;-89
2022/06/24 05:08:39;;;;;;;3.90;2.50;;;;;;;20.60;54.65;99989.13;107823;1278;60798;-90
2022/06/24 05:11:09;;;;;;;5.50;2.60;;;;;;;20.68;54.06;99984.55;107816;1279;61329;-90
2022/06/24 05:13:38;;;;;;;4.10;2.40;;;;;;;20.76;53.66;99984.77;107938;1279;74054;-90
2022/06/24 05:16:10;;;;;;;4.90;2.50;;;;;;;20.86;53.53;99993.61;107914;1279;71529;-89
2022/06/24 05:24:09;;;;;;;4.40;2.60;;;;;;;21.07;53.44;99988.23;107970;1267;59661;-90
2022/06/24 05:26:40;;;;;;;5.40;2.80;;;;;;;21.15;53.22;99984.34;107933;1279;75404;-90
2022/06/24 05:29:09;;;;;;;5.70;2.60;;;;;;;21.23;53.14;99991.82;107852;1279;73689;-90
2022/06/24 05:31:36;;;;;;;6.30;2.10;;;;;;;21.32;53.14;99994.13;107977;1277;72489;-90
2022/06/24 05:39:17;;;;;;;5.40;2.20;;;;;;;21.50;52.50;99986.17;107808;1270;182116;-82
2022/06/24 05:41:44;;;;;;;9.00;4.90;;;;;;;21.56;52.43;99988.41;107920;1280;71425;-81
2022/06/24 05:44:11;;;;;;;9.50;4.10;;;;;;;21.66;52.10;99991.69;107813;1279;72233;-83
2022/06/24 05:46:41;;;;;;;4.30;2.50;;;;;;;21.79;52.02;99994.14;107959;1277;61021;-84
2022/06/24 05:49:08;;;;;;;3.90;2.90;;;;;;;21.96;51.74;99991.38;107597;1281;60557;-85
2022/06/24 05:51:36;;;;;;;3.50;2.40;;;;;;;22.12;51.68;99989.72;107990;1280;77086;-84
2022/06/24 05:56:49;;;;;;;3.90;2.30;;;;;;;22.39;51.03;99986.52;107971;1279;74765;-84
2022/06/24 05:59:16;;;;;;;4.40;2.60;;;;;;;22.47;50.54;99983.54;107669;1277;61306;-84
2022/06/24 06:01:43;;;;;;;3.70;2.50;;;;;;;22.60;50.44;99981.48;107928;1279;60436;-84
2022/06/24 06:04:09;;;;;;;4.70;2.70;;;;;;;22.74;50.50;99980.59;107680;1279;75751;-85
2022/06/24 06:06:37;;;;;;;4.40;2.60;;;;;;;22.88;49.69;99980.82;107735;1279;72912;-84
2022/06/24 06:09:03;;;;;;;4.80;2.70;;;;;;;22.97;49.23;99979.28;107889;1277;74942;-83
2022/06/24 06:11:30;;;;;;;5.80;2.90;;;;;;;23.03;49.15;99979.19;107992;1277;60785;-84
2022/06/24 06:13:57;;;;;;;11.50;2.70;;;;;;;23.07;49.21;99976.48;107891;1279;59986;-83
2022/06/24 06:16:24;;;;;;;6.00;2.70;;;;;;;23.13;49.26;99975.10;107853;1279;75673;-83
2022/06/24 06:18:52;;;;;;;3.90;2.10;;;;;;;23.22;48.97;99983.08;108025;1277;71391;-83
2022/06/24 06:21:19;;;;;;;4.20;2.40;;;;;;;23.30;48.75;99981.54;107696;1280;74199;-84
2022/06/24 06:23:46;;;;;;;3.80;2.60;;;;;;;23.38;48.77;99980.42;108002;1277;61252;-84
2022/06/24 06:26:15;;;;;;;6.80;2.40;;;;;;;23.47;48.55;99980.96;107996;1279;61185;-85
2022/06/24 06:28:43;;;;;;;3.10;2.50;;;;;;;23.55;48.66;99974.81;107952;1278;76926;-84
2022/06/24 06:31:10;;;;;;;6.30;3.20;;;;;;;23.61;48.32;99977.27;107835;1279;71840;-83
2022/06/24 06:33:38;;;;;;;8.00;2.60;;;;;;;23.70;48.03;99971.53;107820;1277;72375;-83
2022/06/24 06:36:12;;;;;;;5.80;2.40;;;;;;;23.81;48.03;99973.43;108047;1279;60360;-84
2022/06/24 06:38:39;;;;;;;5.60;2.90;;;;;;;23.95;48.01;99969.29;107770;1279;60547;-84
2022/06/24 06:41:17;;;;;;;7.60;2.60;;;;;;;24.08;47.61;99967.84;107757;1280;74390;-84
2022/06/24 06:43:43;;;;;;;4.50;2.40;;;;;;;24.22;47.30;99969.38;107834;1279;71496;-84
2022/06/24 06:46:11;;;;;;;7.10;2.50;;;;;;;24.39;47.61;99973.22;107735;1279;73982;-84
2022/06/24 06:48:41;;;;;;;2.90;2.40;;;;;;;24.56;47.03;99970.67;107695;1281;60502;-84
2022/06/24 06:51:08;;;;;;;2.50;2.30;;;;;;;24.68;46.58;99972.66;107994;1279;60300;-84
2022/06/24 06:53:36;;;;;;;4.80;2.30;;;;;;;24.80;46.34;99973.14;107869;1279;74924;-84
2022/06/24 06:56:03;;;;;;;6.10;2.70;;;;;;;24.94;46.26;99972.45;107643;1279;72647;-84
2022/06/24 06:58:37;;;;;;;;;;;;;;;25.06;46.02;99966.77;108006;1279;74042;-84
2022/06/24 07:01:07;;;;;;;4.20;2.30;;;;;;;25.13;45.68;99967.61;107919;1279;60789;-84
2022/06/24 07:03:34;;;;;;;3.10;2.10;;;;;;;25.19;45.59;99967.44;107676;1281;61024;-84
2022/06/24 07:06:01;;;;;;;3.70;3.00;;;;;;;25.26;45.75;99964.66;107997;1279;74926;-84
2022/06/24 07:08:28;;;;;;;4.90;2.80;;;;;;;25.38;46.03;99966.68;108026;1279;71733;-84
2022/06/24 07:10:55;;;;;;;8.80;2.70;;;;;;;25.49;45.15;99969.26;107823;1279;72920;-84
2022/06/24 07:13:22;;;;;;;3.30;2.30;;;;;;;25.57;44.90;99963.80;107841;1280;59377;-84
2022/06/24 07:15:49;;;;;;;3.10;2.30;;;;;;;25.64;44.74;99955.46;107835;1279;61498;-84
2022/06/24 07:18:16;;;;;;;3.00;2.10;;;;;;;25.74;45.03;99946.64;107869;1279;75973;-84
2022/06/24 07:20:44;;;;;;;3.80;2.30;;;;;;;25.82;44.29;99947.21;107683;1280;72478;-84
2022/06/24 07:23:10;;;;;;;3.90;2.50;;;;;;;25.92;43.58;99951.81;107765;1280;71811;-84
2022/06/24 07:25:54;;;;;;;5.20;2.40;;;;;;;26.00;43.24;99954.08;107777;1279;60628;-85
2022/06/24 07:28:22;;;;;;;3.70;2.50;;;;;;;26.02;42.81;99944.37;108046;1280;60456;-84
2022/06/24 07:30:48;;;;;;;3.80;2.50;;;;;;;26.08;43.43;99941.45;107991;1277;74635;-84
2022/06/24 07:33:15;;;;;;;5.80;2.40;;;;;;;26.17;43.02;99937.70;107938;1279;72017;-84
2022/06/24 07:35:43;;;;;;;7.90;2.40;;;;;;;26.27;42.82;99939.89;107726;1279;72124;-84
2022/06/24 07:38:19;;;;;;;4.70;2.40;;;;;;;26.32;42.31;99936.38;107913;1279;60128;-84
2022/06/24 07:40:46;;;;;;;3.00;2.10;;;;;;;26.34;42.37;99934.88;107749;1279;59509;-84
2022/06/24 07:43:13;;;;;;;4.20;2.10;;;;;;;26.42;42.48;99935.98;107841;1279;77408;-84
2022/06/24 07:45:39;;;;;;;7.10;2.60;;;;;;;26.43;42.35;99940.30;107651;1280;71521;-84
2022/06/24 07:48:07;;;;;;;3.10;2.40;;;;;;;26.42;42.03;99946.91;107670;1281;72154;-84
2022/06/24 07:50:34;;;;;;;4.40;2.20;;;;;;;26.42;42.36;99939.63;107979;1279;60688;-84
2022/06/24 07:53:01;;;;;;;4.10;2.00;;;;;;;26.48;42.24;99943.39;108026;1279;59802;-84
2022/06/24 07:58:13;;;;;;;5.60;2.70;;;;;;;26.51;41.98;99938.27;107707;1281;72241;-84
2022/06/24 08:00:40;;;;;;;4.20;2.50;;;;;;;26.62;42.15;99937.94;107904;1279;72121;-84
2022/06/24 08:03:07;;;;;;;4.40;2.10;;;;;;;26.71;42.18;99937.39;107900;1279;59244;-85
2022/06/24 08:05:34;;;;;;;4.40;2.30;;;;;;;26.73;41.52;99934.07;107788;1279;60688;-84
2022/06/24 08:08:02;;;;;;;4.10;2.40;;;;;;;26.70;41.57;99935.66;107881;1279;77569;-84
2022/06/24 08:10:29;;;;;;;2.80;2.00;;;;;;;26.76;41.93;99934.14;107819;1279;72421;-83
2022/06/24 08:12:56;;;;;;;4.80;2.70;;;;;;;26.84;41.67;99937.88;107936;1279;73289;-84
2022/06/24 08:15:23;;;;;;;3.90;2.30;;;;;;;26.89;41.76;99927.55;108038;1278;60943;-84
2022/06/24 08:17:49;;;;;;;4.80;2.40;;;;;;;26.98;41.42;99927.82;107828;1279;60600;-84
2022/06/24 08:20:17;;;;;;;5.40;2.00;;;;;;;27.02;41.59;99923.10;107727;1280;73920;-85
2022/06/24 08:22:44;;;;;;;4.60;2.20;;;;;;;27.13;42.01;99918.86;107949;1279;71092;-84
2022/06/24 08:25:11;;;;;;;2.70;2.00;;;;;;;27.22;41.65;99916.99;107666;1281;73025;-85
2022/06/24 08:27:49;;;;;;;3.50;1.80;;;;;;;27.22;41.05;99913.02;107949;1279;60774;-84
2022/06/24 08:30:16;;;;;;;5.20;2.40;;;;;;;27.23;41.15;99900.58;107823;1279;60207;-84
2022/06/24 08:32:44;;;;;;;4.80;1.70;;;;;;;27.31;41.45;99903.27;107909;1279;76057;-84
2022/06/24 08:35:10;;;;;;;3.60;1.70;;;;;;;27.41;41.28;99898.55;107976;1279;71594;-85
2022/06/24 08:37:54;;;;;;;4.20;1.80;;;;;;;27.45;40.91;99900.70;107992;1279;71738;-85
2022/06/24 08:40:22;;;;;;;3.80;1.20;;;;;;;27.50;40.69;99901.29;107960;1279;61974;-85
2022/06/24 08:42:55;;;;;;;4.50;1.90;;;;;;;27.60;40.77;99901.88;107749;1279;61529;-85
2022/06/24 08:45:22;;;;;;;5.60;1.80;;;;;;;27.73;40.58;99894.88;107693;1279;75476;-85
2022/06/24 08:47:49;;;;;;;2.70;1.40;;;;;;;27.86;40.33;99894.30;107262;1279;673242;-84
2022/06/24 08:50:17;;;;;;;5.70;1.70;;;;;;;28.06;40.21;99891.44;108007;1279;74534;-85
2022/06/24 08:52:47;;;;;;;4.40;1.60;;;;;;;28.21;39.59;99896.77;107942;1280;62288;-84
2022/06/24 08:55:21;;;;;;;5.30;1.50;;;;;;;28.26;39.61;99894.02;107637;1281;60957;-85
2022/06/24 08:57:49;;;;;;;4.50;1.70;;;;;;;28.33;39.43;99892.96;107895;1280;75795;-85
2022/06/24 09:00:18;;;;;;;3.90;1.60;;;;;;;28.45;39.03;99887.47;107816;1279;71447;-85
2022/06/24 09:02:46;;;;;;;3.60;1.50;;;;;;;28.67;39.24;99891.36;108018;1279;71869;-85
2022/06/24 09:05:15;;;;;;;3.30;1.20;;;;;;;28.68;38.62;99887.67;107568;1279;60642;-85
2022/06/24 09:07:42;;;;;;;3.40;1.50;;;;;;;28.55;38.68;99890.07;107972;1279;60262;-84
2022/06/24 09:10:13;;;;;;;4.30;1.20;;;;;;;28.43;38.65;99887.19;107995;1279;76082;-85
2022/06/24 09:12:45;;;;;;;3.30;1.40;;;;;;;28.31;38.90;99887.02;107822;1279;71452;-84
2022/06/24 09:15:14;;;;;;;4.40;1.30;;;;;;;28.26;39.36;99885.93;107975;1279;74041;-84
2022/06/24 09:17:42;;;;;;;5.20;1.30;;;;;;;28.25;39.37;99890.23;107849;1279;61663;-85
2022/06/24 09:20:21;;;;;;;4.60;1.40;;;;;;;28.17;40.21;99890.54;107715;1279;60748;-84
2022/06/24 09:23:06;;;;;;;5.00;1.40;;;;;;;28.12;40.49;99894.28;107664;1281;74903;-85
2022/06/24 09:25:44;;;;;;;3.20;1.40;;;;;;;28.03;41.11;99895.81;107929;1279;71082;-85
2022/06/24 09:28:12;;;;;;;4.50;1.30;;;;;;;27.86;41.78;99902.22;107949;1279;73435;-84
2022/06/24 09:30:39;;;;;;;3.10;1.20;;;;;;;27.63;42.19;99907.11;107731;1279;59547;-84
2022/06/24 09:33:06;;;;;;;3.40;1.10;;;;;;;27.36;43.04;99907.23;107982;1277;60745;-84
2022/06/24 09:36:01;;;;;;;3.40;1.90;;;;;;;27.04;43.83;99903.19;107733;1279;76463;-83
2022/06/24 09:38:53;;;;;;;4.60;1.80;;;;;;;26.74;44.54;99916.61;107871;1278;72420;-84
2022/06/24 09:41:20;;;;;;;2.90;1.40;;;;;;;26.45;45.21;99917.27;107935;1278;74602;-83
2022/06/24 09:43:47;;;;;;;5.30;1.40;;;;;;;26.23;45.74;99921.35;107821;1279;60491;-84
2022/06/24 09:46:22;;;;;;;4.60;1.60;;;;;;;26.02;46.39;99927.79;107931;1278;60323;-83
2022/06/24 09:48:53;;;;;;;4.40;1.80;;;;;;;25.80;46.72;99927.04;107952;1279;74792;-83
2022/06/24 09:51:20;;;;;;;4.80;1.50;;;;;;;25.64;48.36;99930.46;107790;1279;71433;-83
2022/06/24 09:53:47;;;;;;;5.30;1.60;;;;;;;25.51;50.14;99933.15;107746;1279;73132;-83
2022/06/24 09:56:14;;;;;;;5.20;1.70;;;;;;;25.41;51.43;99950.56;107904;1279;61831;-83
2022/06/24 10:00:40;;;;;;;3.70;1.50;;;;;;;25.32;52.43;99955.78;107924;1279;60358;-85
2022/06/24 10:01:38;;;;;;;3.70;1.30;;;;;;;25.15;52.63;99955.81;107996;1279;74885;-82
2022/06/24 10:04:07;;;;;;;4.20;1.30;;;;;;;24.99;53.40;99952.80;107978;1279;72564;-82
2022/06/24 10:06:36;;;;;;;2.80;1.30;;;;;;;24.86;53.05;99951.05;108004;1279;73788;-83
2022/06/24 10:09:05;;;;;;;4.60;1.40;;;;;;;24.80;53.68;99956.91;107724;1279;59258;-83
2022/06/24 10:11:37;;;;;;;3.90;1.60;;;;;;;24.73;53.97;99959.58;107931;1279;61355;-82
2022/06/24 10:14:06;;;;;;;5.80;1.50;;;;;;;24.68;54.42;99965.17;107944;1278;76180;-82
2022/06/24 10:16:33;;;;;;;4.50;1.40;;;;;;;24.58;54.63;99969.19;107941;1280;71487;-82
2022/06/24 10:19:02;;;;;;;3.80;1.40;;;;;;;24.52;54.75;99968.58;107614;1281;72893;-82
2022/06/24 10:21:30;;;;;;;4.40;1.70;;;;;;;24.52;54.49;99966.96;107998;1278;60831;-83
2022/06/24 10:23:57;;;;;;;6.20;1.40;;;;;;;24.54;54.41;99965.85;107905;1279;60772;-83
2022/06/24 10:26:30;;;;;;;4.10;1.40;;;;;;;24.63;54.47;99962.52;108066;1279;75145;-83
2022/06/24 10:29:05;;;;;;;5.50;1.30;;;;;;;24.74;54.53;99965.34;108006;1279;72594;-83
2022/06/24 10:34:22;;;;;;;3.30;1.30;;;;;;;25.02;54.01;99966.71;108038;1279;60705;-84
2022/06/24 10:36:52;;;;;;;5.20;1.80;;;;;;;25.21;53.48;99967.09;107998;1278;62155;-83
2022/06/24 10:39:23;;;;;;;4.40;1.80;;;;;;;25.42;52.69;99971.73;107690;1281;74096;-83
2022/06/24 10:42:14;;;;;;;4.10;1.50;;;;;;;25.54;52.20;99973.84;107680;1279;71364;-83
2022/06/24 10:45:04;;;;;;;6.50;1.70;;;;;;;25.66;51.79;99974.03;107979;1279;74179;-83
2022/06/24 10:47:34;;;;;;;2.70;1.40;;;;;;;25.72;51.62;99968.50;107667;1281;60933;-83
2022/06/24 10:50:02;;;;;;;4.40;1.50;;;;;;;25.73;51.55;99962.63;108038;1278;60749;-83
2022/06/24 10:52:51;;;;;;;2.60;1.30;;;;;;;25.75;53.34;99960.20;107976;1279;74855;-83
2022/06/24 10:55:18;;;;;;;3.50;1.60;;;;;;;25.73;54.69;99955.92;107934;1280;71221;-83
2022/06/24 10:57:56;;;;;;;5.30;1.40;;;;;;;25.70;55.99;99954.90;107961;1279;72277;-83
2022/06/24 11:00:28;;;;;;;5.30;1.50;;;;;;;25.67;57.13;99952.20;107956;1279;60440;-84
2022/06/24 11:03:04;;;;;;;2.40;1.30;;;;;;;25.59;59.33;99955.37;107996;1279;60496;-84
2022/06/24 11:05:33;;;;;;;3.30;1.70;;;;;;;25.51;59.72;99950.76;107967;1278;76144;-84
2022/06/24 11:08:01;;;;;;;5.80;1.70;;;;;;;25.45;60.19;99952.41;108019;1279;71724;-82
2022/06/24 11:10:31;;;;;;;4.70;2.00;;;;;;;25.45;61.74;99952.95;107850;1280;74045;-82
2022/06/24 11:12:59;;;;;;;4.00;1.60;;;;;;;25.41;62.71;99954.05;108028;1279;60758;-82
2022/06/24 11:15:45;;;;;;;3.60;1.70;;;;;;;25.27;62.04;99954.81;107906;1279;61955;-82
2022/06/24 11:18:15;;;;;;;9.00;1.90;;;;;;;25.08;62.36;99957.52;108008;1279;76834;-83
2022/06/24 11:20:51;;;;;;;3.30;1.40;;;;;;;24.89;63.15;99966.53;107581;1279;71291;-82
2022/06/24 11:23:19;;;;;;;4.90;1.90;;;;;;;24.58;62.98;99972.36;108033;1278;72962;-82
2022/06/24 11:25:47;;;;;;;5.70;1.50;;;;;;;24.29;64.38;99961.81;107991;1279;59745;-82
2022/06/24 11:28:25;;;;;;;6.30;1.60;;;;;;;24.07;65.76;99958.86;107716;1281;60330;-83
2022/06/24 11:30:53;;;;;;;2.50;1.30;;;;;;;23.82;66.46;99959.90;107948;1279;74627;-83
2022/06/24 11:33:21;;;;;;;3.80;1.40;;;;;;;23.62;66.77;99954.41;107880;1279;71138;-83
2022/06/24 11:35:49;;;;;;;6.40;1.30;;;;;;;23.46;67.13;99965.16;107921;1279;72917;-83
2022/06/24 11:38:22;;;;;;;3.40;1.20;;;;;;;23.30;67.42;99961.56;107961;1279;60864;-83
2022/06/24 11:40:49;;;;;;;3.50;1.50;;;;;;;23.20;67.92;99964.04;107757;1279;60629;-82
2022/06/24 11:43:16;;;;;;;2.60;1.30;;;;;;;23.15;68.36;99959.58;107977;1279;75155;-83
2022/06/24 11:45:46;;;;;;;6.20;1.70;;;;;;;23.18;68.49;99962.96;107804;1279;71462;-83
2022/06/24 11:48:20;;;;;;;3.60;1.20;;;;;;;23.23;68.11;99960.71;107882;1279;73519;-83
2022/06/24 11:50:47;;;;;;;2.60;1.30;;;;;;;23.26;68.29;99960.16;107800;1281;63077;-83
2022/06/24 11:53:15;;;;;;;6.50;1.10;;;;;;;23.30;67.95;99960.26;107744;1281;61805;-83
2022/06/24 11:55:51;;;;;;;6.50;1.30;;;;;;;23.39;67.80;99961.52;107827;1278;75227;-83
2022/06/24 11:58:20;;;;;;;2.90;1.40;;;;;;;23.53;67.82;99953.33;107931;1279;72350;-83
2022/06/24 12:00:56;;;;;;;4.70;1.30;;;;;;;23.68;67.31;99953.73;107954;1279;73097;-83
2022/06/24 12:03:24;;;;;;;3.20;1.20;;;;;;;23.85;67.09;99951.96;107847;1279;61970;-83
2022/06/24 12:05:51;;;;;;;4.30;1.40;;;;;;;23.97;65.35;99953.30;107839;1279;60428;-83
2022/06/24 12:08:19;;;;;;;3.10;1.00;;;;;;;24.08;65.00;99948.39;107780;1279;76005;-82
2022/06/24 12:10:53;;;;;;;3.70;1.40;;;;;;;24.27;64.34;99943.95;107911;1279;71767;-82
2022/06/24 12:13:26;;;;;;;;;;;;;;;24.52;63.88;99944.23;108051;1279;73286;-81
2022/06/24 12:15:53;;;;;;;3.20;1.30;;;;;;;24.76;63.25;99937.54;107812;1279;61725;-81
2022/06/24 12:18:22;;;;;;;2.40;1.20;;;;;;;25.06;62.29;99937.19;108010;1279;60463;-88
2022/06/24 12:21:01;;;;;;;3.20;1.30;;;;;;;25.39;61.24;99931.22;108086;1278;74796;-88
2022/06/24 12:23:34;;;;;;;2.00;0.90;;;;;;;25.61;58.93;99925.36;108141;1279;71020;-88
2022/06/24 12:26:14;;;;;;;4.60;1.10;;;;;;;25.72;57.48;99921.77;107955;1279;73559;-88
2022/06/24 12:28:42;;;;;;;2.90;1.00;;;;;;;25.91;57.03;99926.83;107768;1278;60568;-88
2022/06/24 12:31:11;;;;;;;2.90;0.80;;;;;;;26.11;56.74;99926.13;107801;1279;61932;-88
2022/06/24 12:33:44;;;;;;;4.50;1.10;;;;;;;26.25;55.18;99926.83;107847;1279;75110;-87
2022/06/24 12:36:16;;;;;;;2.10;1.00;;;;;;;26.36;54.74;99924.13;107862;1281;72100;-86
2022/06/24 12:39:07;;;;;;;1.80;0.70;;;;;;;26.41;54.02;99916.89;107803;1280;72080;-86
2022/06/24 12:41:51;;;;;;;1.60;0.70;;;;;;;26.45;53.51;99911.06;108201;1278;59297;-87
2022/06/24 12:44:18;;;;;;;1.80;1.00;;;;;;;26.41;53.36;99909.02;108245;1279;59981;-88
2022/06/24 12:52:43;;;;;;;2.40;1.00;;;;;;;26.14;53.64;99911.50;108141;1278;74300;-84
2022/06/24 12:55:13;;;;;;;4.90;1.20;;;;;;;26.05;54.38;99909.42;107826;1279;61635;-85
2022/06/24 12:57:40;;;;;;;2.60;1.10;;;;;;;26.07;54.85;99907.06;107662;1280;60641;-86
2022/06/24 13:05:36;;;;;;;3.90;1.20;;;;;;;26.45;53.02;99905.08;107858;1268;181299;-88
2022/06/24 13:08:03;;;;;;;3.80;1.00;;;;;;;26.51;52.78;99907.32;107942;1279;60696;-87
2022/06/24 13:10:32;;;;;;;3.70;1.10;;;;;;;26.52;52.72;99909.68;107721;1281;61051;-89
2022/06/24 13:13:05;;;;;;;3.70;1.00;;;;;;;26.46;52.23;99908.93;107682;1281;75892;-89
2022/06/24 13:15:32;;;;;;;3.40;1.00;;;;;;;26.42;52.44;99904.33;107887;1281;71210;-90
2022/06/24 13:17:58;;;;;;;1.70;1.00;;;;;;;26.41;52.73;99902.81;108020;1279;72971;-90
2022/06/24 13:20:26;;;;;;;3.60;1.00;;;;;;;26.42;52.70;99903.23;107869;1280;60339;-88
2022/06/24 13:22:52;;;;;;;4.20;0.80;;;;;;;26.50;53.43;99900.88;108034;1279;61625;-88